Time;durP1;ratioP1;P1;durP2;ratioP2;P2;SDS_P1;SDS_P2;PMS_P1;PMS_P2;Temp;Humidity;BMP_temperature;BMP_pressure;BME280_temperature;BME280_humidity;BME280_pressure;Samples;Min_cycle;Max_cycle;Signal;HPM_P1;HPM_P2
2022/01/31 00:00:43;;;;;;;8.55;4.03;;;;;;;3.54;51.20;94772.94;5076798;28;20272;-64
2022/01/31 00:03:10;;;;;;;8.70;4.10;;;;;;;3.52;51.46;94769.72;5075689;28;20192;-64
2022/01/31 00:05:39;;;;;;;7.57;3.40;;;;;;;3.51;51.09;94768.91;5076724;28;20200;-64
2022/01/31 00:08:06;;;;;;;9.80;4.28;;;;;;;3.54;51.28;94775.66;5075827;28;20215;-64
2022/01/31 00:10:33;;;;;;;7.45;3.20;;;;;;;3.55;50.89;94780.00;5076602;28;20271;-64
2022/01/31 00:13:04;;;;;;;10.68;4.05;;;;;;;3.59;51.04;94779.06;5075698;28;20193;-64
2022/01/31 00:15:37;;;;;;;10.88;3.38;;;;;;;3.58;51.11;94782.09;5075653;28;20200;-64
2022/01/31 00:18:06;;;;;;;8.90;3.60;;;;;;;3.60;50.82;94794.31;5076475;28;20185;-64
2022/01/31 00:20:33;;;;;;;7.43;3.97;;;;;;;3.59;51.37;94795.44;5076452;28;20186;-64
2022/01/31 00:23:01;;;;;;;7.80;3.33;;;;;;;3.60;50.97;94793.50;5075552;28;20201;-64
2022/01/31 00:25:28;;;;;;;8.80;3.40;;;;;;;3.61;51.07;94797.84;5076437;28;20189;-64
2022/01/31 00:27:55;;;;;;;7.57;3.42;;;;;;;3.61;50.81;94809.53;5075268;28;20220;-64
2022/01/31 00:30:21;;;;;;;8.70;3.65;;;;;;;3.58;50.98;94793.81;5075752;28;20197;-64
2022/01/31 00:32:48;;;;;;;10.07;3.60;;;;;;;3.60;50.89;94794.31;5076195;28;20196;-64
2022/01/31 00:35:15;;;;;;;7.18;3.20;;;;;;;3.60;50.81;94799.75;5076018;28;20248;-63
2022/01/31 00:37:42;;;;;;;10.68;3.65;;;;;;;3.61;50.62;94795.09;5076077;28;20196;-63
2022/01/31 00:40:11;;;;;;;10.10;3.45;;;;;;;3.56;50.83;94798.78;5075830;28;20185;-63
2022/01/31 00:42:39;;;;;;;10.82;3.47;;;;;;;3.58;50.83;94799.25;5075903;28;20251;-63
2022/01/31 00:45:16;;;;;;;12.18;3.33;;;;;;;3.60;50.97;94805.22;5074966;28;20212;-63
2022/01/31 00:47:47;;;;;;;9.02;3.50;;;;;;;3.61;50.68;94800.56;5074943;28;20216;-63
2022/01/31 00:50:16;;;;;;;8.85;3.38;;;;;;;3.65;50.54;94808.91;5076129;28;20185;-64
2022/01/31 00:52:44;;;;;;;8.48;3.22;;;;;;;3.66;50.70;94813.25;5074699;28;20193;-65
2022/01/31 00:55:14;;;;;;;7.93;3.42;;;;;;;3.64;50.87;94804.59;5075732;28;20200;-65
2022/01/31 00:57:42;;;;;;;9.10;3.22;;;;;;;3.59;50.95;94805.50;5075741;28;20185;-65
2022/01/31 01:00:09;;;;;;;9.02;3.35;;;;;;;3.59;50.74;94809.06;5074792;28;20205;-65
2022/01/31 01:02:36;;;;;;;12.32;3.50;;;;;;;3.61;51.04;94803.28;5074929;28;20193;-65
2022/01/31 01:05:03;;;;;;;7.45;3.13;;;;;;;3.64;50.68;94805.41;5075615;28;20203;-64
2022/01/31 01:07:30;;;;;;;10.80;3.65;;;;;;;3.69;50.66;94802.50;5075538;28;20209;-64
2022/01/31 01:09:57;;;;;;;10.63;3.08;;;;;;;3.67;50.23;94812.13;5074540;28;20201;-64
2022/01/31 01:12:25;;;;;;;9.00;3.50;;;;;;;3.64;50.52;94802.66;5075756;28;20192;-64
2022/01/31 01:14:52;;;;;;;8.95;3.45;;;;;;;3.59;49.97;94800.06;5074755;28;20197;-64
2022/01/31 01:17:19;;;;;;;10.50;3.35;;;;;;;3.56;50.14;94804.25;5074722;28;20192;-64
2022/01/31 01:19:46;;;;;;;7.38;3.13;;;;;;;3.57;50.12;94802.31;5075074;28;20541;-64
2022/01/31 01:22:13;;;;;;;7.80;3.28;;;;;;;3.60;50.28;94805.22;5075265;28;20197;-64
2022/01/31 01:24:40;;;;;;;6.78;3.60;;;;;;;3.61;50.07;94797.84;5074126;28;20532;-64
2022/01/31 01:27:08;;;;;;;6.70;3.00;;;;;;;3.62;50.25;94799.44;5074100;28;20213;-64
2022/01/31 01:29:37;;;;;;;5.53;3.20;;;;;;;3.63;50.29;94801.03;5074376;28;20201;-64
2022/01/31 01:32:04;;;;;;;10.38;3.20;;;;;;;3.66;50.52;94788.69;5075228;28;20190;-64
2022/01/31 01:34:34;;;;;;;7.72;3.15;;;;;;;3.65;50.25;94790.63;5074936;28;20181;-64
2022/01/31 01:37:01;;;;;;;7.07;3.10;;;;;;;3.68;50.37;94798.19;5075125;28;20233;-64
2022/01/31 01:39:28;;;;;;;6.53;3.00;;;;;;;3.70;50.36;94787.75;5074892;28;20185;-64
2022/01/31 01:41:55;;;;;;;6.80;2.88;;;;;;;3.71;50.06;94780.38;5074190;28;20199;-64
2022/01/31 01:44:42;;;;;;;8.48;3.25;;;;;;;3.67;50.04;94784.84;5075172;28;20199;-64
2022/01/31 01:47:09;;;;;;;8.95;3.70;;;;;;;3.68;50.11;94795.47;5074094;28;20216;-64
2022/01/31 01:49:36;;;;;;;9.50;3.13;;;;;;;3.69;50.08;94791.59;5073969;28;20208;-64
2022/01/31 01:52:04;;;;;;;6.75;3.00;;;;;;;3.71;50.00;94786.66;5075001;28;20181;-64
2022/01/31 01:54:31;;;;;;;9.25;3.30;;;;;;;3.75;49.62;94786.81;5074165;28;20200;-64
2022/01/31 01:56:59;;;;;;;6.13;3.30;;;;;;;3.73;49.72;94792.56;5074775;28;20192;-64
2022/01/31 01:59:25;;;;;;;7.07;3.00;;;;;;;3.69;49.29;94791.59;5074125;28;20197;-64
2022/01/31 02:01:54;;;;;;;4.75;2.63;;;;;;;3.71;49.54;94794.03;5074959;28;20185;-64
2022/01/31 02:04:20;;;;;;;6.15;3.20;;;;;;;3.71;49.24;94797.56;5074903;28;20193;-64
2022/01/31 02:06:47;;;;;;;7.32;2.90;;;;;;;3.69;49.06;94794.31;5074131;28;20231;-64
2022/01/31 02:09:16;;;;;;;6.30;2.80;;;;;;;3.70;48.80;94792.41;5074269;28;20544;-64
2022/01/31 02:11:43;;;;;;;6.07;2.50;;;;;;;3.68;48.98;94784.53;5073999;28;20220;-64
2022/01/31 02:14:10;;;;;;;5.72;2.85;;;;;;;3.70;49.20;94786.94;5073955;28;20204;-64
2022/01/31 02:16:37;;;;;;;5.82;3.00;;;;;;;3.67;49.20;94787.56;5074665;28;20491;-64
2022/01/31 02:19:06;;;;;;;5.15;2.85;;;;;;;3.66;49.23;94777.78;5073953;28;20197;-64
2022/01/31 02:21:35;;;;;;;6.35;3.22;;;;;;;3.66;49.25;94785.97;5074503;28;20185;-64
2022/01/31 02:24:01;;;;;;;8.27;3.63;;;;;;;3.64;49.10;94782.78;5074682;28;20192;-64
2022/01/31 02:26:28;;;;;;;8.73;2.92;;;;;;;3.64;49.23;94786.31;5073745;28;20201;-64
2022/01/31 02:28:56;;;;;;;5.43;2.72;;;;;;;3.62;49.23;94781.16;5073877;28;20197;-64
2022/01/31 02:31:23;;;;;;;6.68;2.58;;;;;;;3.64;48.66;94788.22;5074433;28;20246;-64
2022/01/31 02:33:50;;;;;;;7.03;2.83;;;;;;;3.64;49.05;94778.13;5073521;28;20212;-64
2022/01/31 02:36:17;;;;;;;5.28;2.80;;;;;;;3.64;48.88;94790.97;5076174;28;20244;-64
2022/01/31 02:38:45;;;;;;;5.82;2.95;;;;;;;3.58;48.79;94796.53;5077931;28;20227;-64
2022/01/31 02:41:12;;;;;;;7.35;2.92;;;;;;;3.54;48.53;94803.75;5077557;28;20197;-64
2022/01/31 02:43:38;;;;;;;5.55;2.90;;;;;;;3.52;48.83;94803.28;5077458;28;20624;-64
2022/01/31 02:46:05;;;;;;;7.95;2.80;;;;;;;3.52;48.93;94805.16;5078226;28;20177;-64
2022/01/31 02:48:35;;;;;;;5.03;2.60;;;;;;;3.49;48.87;94797.63;5078134;28;20213;-64
2022/01/31 02:51:03;;;;;;;6.35;2.72;;;;;;;3.44;48.77;94803.22;5078261;28;20185;-64
2022/01/31 02:53:33;;;;;;;6.93;3.00;;;;;;;3.44;49.01;94801.28;5078211;28;20185;-64
2022/01/31 02:56:03;;;;;;;9.02;3.17;;;;;;;3.48;48.73;94796.81;5077220;28;20204;-64
2022/01/31 02:58:30;;;;;;;8.70;3.50;;;;;;;3.47;48.54;94814.28;5077713;28;20193;-64
2022/01/31 03:00:59;;;;;;;5.13;2.60;;;;;;;3.44;48.83;94804.00;5077142;28;20197;-64
2022/01/31 03:03:26;;;;;;;7.90;2.67;;;;;;;3.47;49.04;94808.84;5077077;28;20189;-64
2022/01/31 03:05:53;;;;;;;6.03;2.42;;;;;;;3.47;48.91;94802.59;5076972;28;20204;-64
2022/01/31 03:08:20;;;;;;;6.00;2.78;;;;;;;3.45;49.64;94813.81;5076881;28;20215;-64
2022/01/31 03:10:46;;;;;;;5.82;2.40;;;;;;;3.47;49.52;94808.84;5077996;28;20193;-64
2022/01/31 03:13:15;;;;;;;3.97;2.85;;;;;;;3.48;49.48;94810.44;5077773;28;20197;-64
2022/01/31 03:15:41;;;;;;;9.23;2.40;;;;;;;3.47;49.07;94819.75;5077467;28;20189;-64
2022/01/31 03:18:08;;;;;;;5.65;3.08;;;;;;;3.46;49.16;94818.16;5077415;28;20533;-64
2022/01/31 03:20:35;;;;;;;4.38;2.70;;;;;;;3.46;49.18;94814.63;5077059;28;20203;-64
2022/01/31 03:23:02;;;;;;;5.32;2.63;;;;;;;3.45;48.93;94819.28;5076743;28;20204;-64
2022/01/31 03:25:30;;;;;;;6.97;2.50;;;;;;;3.46;49.36;94809.16;5077247;28;20292;-64
2022/01/31 03:27:57;;;;;;;4.55;2.75;;;;;;;3.46;48.83;94809.16;5076519;28;20237;-64
2022/01/31 03:30:25;;;;;;;7.07;2.78;;;;;;;3.50;49.26;94810.16;5077524;28;20181;-64
2022/01/31 03:32:52;;;;;;;4.72;2.72;;;;;;;3.51;48.76;94807.09;5076487;28;20189;-64
2022/01/31 03:35:19;;;;;;;5.07;2.60;;;;;;;3.50;49.03;94796.50;5077231;28;20224;-64
2022/01/31 03:37:46;;;;;;;5.20;2.80;;;;;;;3.49;48.82;94792.97;5076383;28;20197;-64
2022/01/31 03:40:13;;;;;;;7.60;2.42;;;;;;;3.49;49.30;94797.63;5077299;28;20196;-64
2022/01/31 03:42:41;;;;;;;5.63;2.75;;;;;;;3.50;49.19;94794.59;5076534;28;20200;-64
2022/01/31 03:45:10;;;;;;;7.10;3.05;;;;;;;3.49;49.18;94789.47;5077270;28;20220;-64
2022/01/31 03:47:44;;;;;;;8.10;3.05;;;;;;;3.45;49.38;94797.47;5076668;28;20216;-64
2022/01/31 03:50:11;;;;;;;5.40;3.00;;;;;;;3.44;49.43;94800.50;5076844;28;20183;-64
2022/01/31 03:52:38;;;;;;;5.18;2.75;;;;;;;3.42;49.50;94800.00;5076600;28;20622;-65
2022/01/31 03:55:06;;;;;;;7.78;3.53;;;;;;;3.45;49.43;94797.47;5077032;28;20209;-65
2022/01/31 03:57:33;;;;;;;5.72;2.90;;;;;;;3.45;49.56;94797.47;5076955;28;20191;-65
2022/01/31 04:00:01;;;;;;;4.50;2.92;;;;;;;3.48;49.36;94796.81;5076534;28;20207;-64
2022/01/31 04:02:28;;;;;;;6.15;2.67;;;;;;;3.46;49.20;94799.06;5076871;28;20208;-64
2022/01/31 04:04:56;;;;;;;5.70;2.95;;;;;;;3.41;49.40;94793.72;5075505;28;20201;-64
2022/01/31 04:07:23;;;;;;;6.78;2.65;;;;;;;3.36;49.08;94793.88;5076633;28;20221;-64
2022/01/31 04:09:49;;;;;;;5.53;2.75;;;;;;;3.35;49.36;94795.81;5075797;28;20193;-65
2022/01/31 04:12:16;;;;;;;6.22;2.97;;;;;;;3.33;48.63;94805.41;5076173;28;20204;-64
2022/01/31 04:14:43;;;;;;;5.55;2.85;;;;;;;3.29;48.94;94807.94;5075675;28;20523;-64
2022/01/31 04:17:10;;;;;;;4.47;2.60;;;;;;;3.30;49.31;94808.75;5075390;28;20632;-63
2022/01/31 04:19:38;;;;;;;5.40;3.47;;;;;;;3.27;49.29;94814.84;5075363;28;20208;-63
2022/01/31 04:22:11;;;;;;;4.78;3.00;;;;;;;3.26;49.48;94805.84;5075530;28;20197;-63
2022/01/31 04:24:40;;;;;;;4.57;2.85;;;;;;;3.23;49.31;94814.69;5075240;28;20264;-64
2022/01/31 04:27:08;;;;;;;6.38;3.10;;;;;;;3.21;49.67;94811.44;5075145;28;20196;-63
2022/01/31 04:29:37;;;;;;;5.53;3.38;;;;;;;3.23;49.77;94817.41;5076339;28;20204;-63
2022/01/31 04:32:05;;;;;;;5.05;2.78;;;;;;;3.18;50.18;94812.06;5076174;28;20185;-63
2022/01/31 04:34:32;;;;;;;4.75;2.80;;;;;;;3.10;50.16;94805.44;5076195;28;20200;-63
2022/01/31 04:36:59;;;;;;;5.93;3.30;;;;;;;3.07;50.57;94805.28;5075142;28;20323;-63
2022/01/31 04:39:29;;;;;;;5.80;2.97;;;;;;;3.03;50.79;94801.56;5075836;28;20181;-64
2022/01/31 04:41:56;;;;;;;5.78;2.80;;;;;;;3.04;50.83;94800.44;5074847;28;20200;-64
2022/01/31 04:44:24;;;;;;;6.28;3.75;;;;;;;3.03;50.72;94809.75;5076109;28;20181;-64
2022/01/31 04:46:52;;;;;;;6.32;3.55;;;;;;;3.02;51.05;94803.50;5076055;28;20189;-64
2022/01/31 04:49:19;;;;;;;5.25;3.28;;;;;;;2.99;50.43;94795.13;5074961;28;20217;-64
2022/01/31 04:51:46;;;;;;;7.15;3.25;;;;;;;2.96;51.04;94801.19;5074613;28;20200;-64
2022/01/31 04:54:13;;;;;;;5.15;2.85;;;;;;;2.91;51.01;94799.41;5075552;28;20196;-64
2022/01/31 04:56:42;;;;;;;4.95;3.10;;;;;;;2.84;51.39;94799.03;5074902;28;20200;-64
2022/01/31 04:59:09;;;;;;;3.70;2.63;;;;;;;2.82;51.51;94791.16;5074119;28;20194;-64
2022/01/31 05:01:39;;;;;;;5.63;2.63;;;;;;;2.85;51.39;94789.75;5074857;28;20208;-63
2022/01/31 05:04:06;;;;;;;6.65;2.70;;;;;;;2.84;51.62;94797.13;5075582;28;20193;-63
2022/01/31 05:06:36;;;;;;;5.07;2.45;;;;;;;2.79;51.67;94812.78;5075047;28;20225;-65
2022/01/31 05:09:03;;;;;;;5.03;2.83;;;;;;;2.69;51.94;94802.94;5073510;28;20485;-62
2022/01/31 05:11:31;;;;;;;5.57;2.60;;;;;;;2.69;51.88;94796.69;5074622;28;20200;-63
2022/01/31 05:13:59;;;;;;;5.30;2.95;;;;;;;2.68;51.94;94793.16;5074207;28;20204;-63
2022/01/31 05:16:26;;;;;;;3.97;2.95;;;;;;;2.63;51.94;94788.63;5075475;28;20204;-64
2022/01/31 05:18:53;;;;;;;6.80;3.40;;;;;;;2.64;51.91;94792.97;5075505;28;20189;-63
2022/01/31 05:21:19;;;;;;;4.53;2.63;;;;;;;2.65;51.86;94797.31;5074405;28;20438;-65
2022/01/31 05:23:48;;;;;;;4.55;2.67;;;;;;;2.65;51.97;94796.50;5075040;28;20189;-66
2022/01/31 05:26:15;;;;;;;4.88;2.75;;;;;;;2.60;52.05;94796.63;5075731;28;20189;-63
2022/01/31 05:28:41;;;;;;;4.22;2.40;;;;;;;2.61;51.86;94800.94;5074803;28;20212;-62
2022/01/31 05:31:10;;;;;;;6.25;3.00;;;;;;;2.60;52.13;94802.06;5074990;28;20568;-62
2022/01/31 05:33:36;;;;;;;5.32;2.92;;;;;;;2.64;51.84;94803.84;5074416;28;20197;-62
2022/01/31 05:36:03;;;;;;;5.53;2.70;;;;;;;2.62;51.80;94797.13;5074124;28;20228;-62
2022/01/31 05:38:34;;;;;;;4.35;2.55;;;;;;;2.59;51.63;94801.28;5074948;28;20592;-62
2022/01/31 05:41:04;;;;;;;3.30;2.40;;;;;;;2.63;51.76;94801.47;5075528;28;20189;-62
2022/01/31 05:43:31;;;;;;;4.25;2.67;;;;;;;2.64;51.77;94801.13;5074429;28;20201;-62
2022/01/31 05:45:58;;;;;;;4.05;2.60;;;;;;;2.66;51.74;94798.13;5075050;28;20200;-62
2022/01/31 05:48:27;;;;;;;3.88;2.50;;;;;;;2.65;51.67;94797.31;5075502;28;20541;-62
2022/01/31 05:50:54;;;;;;;4.80;2.50;;;;;;;2.59;51.38;94800.47;5074286;28;20204;-62
2022/01/31 05:53:22;;;;;;;3.20;2.53;;;;;;;2.54;51.59;94811.47;5074886;28;20567;-62
2022/01/31 05:55:49;;;;;;;3.92;2.70;;;;;;;2.57;51.49;94802.69;5074982;28;20201;-62
2022/01/31 05:58:15;;;;;;;4.20;2.60;;;;;;;2.65;51.38;94801.94;5073874;28;20205;-62
2022/01/31 06:00:42;;;;;;;3.58;2.70;;;;;;;2.67;51.29;94793.47;5075061;28;20192;-62
2022/01/31 06:03:09;;;;;;;7.03;2.90;;;;;;;2.72;51.23;94790.63;5075188;28;20186;-62
2022/01/31 06:05:37;;;;;;;4.00;3.20;;;;;;;2.76;51.21;94786.16;5075052;28;20185;-62
2022/01/31 06:08:05;;;;;;;5.40;3.47;;;;;;;2.81;50.87;94797.75;5075000;28;20205;-62
2022/01/31 06:10:33;;;;;;;5.50;3.90;;;;;;;2.78;50.71;94782.00;5078147;28;20189;-62
2022/01/31 06:13:00;;;;;;;9.10;5.10;;;;;;;2.81;50.61;94783.31;5078786;28;20349;-62
2022/01/31 06:15:27;;;;;;;9.15;5.22;;;;;;;2.77;50.39;94777.69;5078992;28;20192;-63
2022/01/31 06:17:54;;;;;;;4.80;3.85;;;;;;;2.80;50.47;94781.72;5078853;28;20196;-63
2022/01/31 06:20:20;;;;;;;5.10;3.22;;;;;;;2.82;50.33;94785.72;5078103;28;20525;-62
2022/01/31 06:22:51;;;;;;;6.00;3.42;;;;;;;2.82;50.26;94793.91;5078217;28;20197;-62
2022/01/31 06:25:19;;;;;;;3.33;2.90;;;;;;;2.82;49.86;94804.00;5078078;28;20201;-62
2022/01/31 06:27:46;;;;;;;5.38;3.20;;;;;;;2.80;49.88;94792.63;5077700;28;20200;-62
2022/01/31 06:30:14;;;;;;;4.72;2.75;;;;;;;2.84;49.99;94791.69;5078650;28;20197;-62
2022/01/31 06:32:41;;;;;;;5.38;3.13;;;;;;;2.82;49.82;94795.81;5078550;28;20192;-62
2022/01/31 06:35:09;;;;;;;3.95;2.80;;;;;;;2.84;49.77;94801.78;5077411;28;20227;-63
2022/01/31 06:37:36;;;;;;;7.68;3.10;;;;;;;2.87;49.33;94801.97;5077527;28;20195;-63
2022/01/31 06:40:05;;;;;;;5.32;3.22;;;;;;;2.93;49.23;94807.25;5077224;28;20636;-63
2022/01/31 06:42:31;;;;;;;5.25;3.10;;;;;;;3.00;49.30;94802.19;5078781;28;20200;-63
2022/01/31 06:44:58;;;;;;;5.93;3.15;;;;;;;3.05;48.98;94797.41;5078301;28;20193;-63
2022/01/31 06:47:25;;;;;;;4.13;2.50;;;;;;;3.07;48.88;94788.91;5077968;28;20195;-63
2022/01/31 06:49:52;;;;;;;4.53;2.60;;;;;;;3.08;48.50;94780.41;5077142;28;20314;-63
2022/01/31 06:52:19;;;;;;;5.25;3.10;;;;;;;3.11;48.35;94776.28;5078183;28;20243;-63
2022/01/31 06:54:50;;;;;;;5.63;3.05;;;;;;;3.18;48.42;94776.63;5078144;28;20185;-63
2022/01/31 06:57:18;;;;;;;5.10;2.60;;;;;;;3.18;48.09;94764.94;5077960;28;20697;-63
2022/01/31 06:59:45;;;;;;;3.55;2.70;;;;;;;3.19;47.76;94761.88;5077986;28;20177;-64
2022/01/31 07:02:12;;;;;;;5.00;2.90;;;;;;;3.19;48.01;94744.72;5077208;28;20434;-63
2022/01/31 07:04:39;;;;;;;3.90;2.67;;;;;;;3.22;47.98;94746.84;5077054;28;20255;-63
2022/01/31 07:07:06;;;;;;;4.78;2.50;;;;;;;3.23;48.02;94757.44;5077400;28;20197;-63
2022/01/31 07:09:34;;;;;;;5.57;2.88;;;;;;;3.29;47.99;94750.72;5076996;28;20216;-64
2022/01/31 07:12:03;;;;;;;6.22;2.75;;;;;;;3.31;46.87;94739.50;5077750;28;20181;-63
2022/01/31 07:14:33;;;;;;;3.75;2.40;;;;;;;3.33;47.06;94743.50;5077620;28;20197;-63
2022/01/31 07:17:01;;;;;;;12.02;10.10;;;;;;;3.33;47.03;94754.41;5077910;28;20250;-63
2022/01/31 07:19:31;;;;;;;5.30;3.22;;;;;;;3.38;46.91;94756.22;5077823;28;20203;-63
2022/01/31 07:21:58;;;;;;;5.93;3.83;;;;;;;3.41;47.29;94762.94;5076164;28;20197;-64
2022/01/31 07:24:31;;;;;;;6.05;3.33;;;;;;;3.52;47.15;94756.09;5077728;28;20173;-64
2022/01/31 07:26:58;;;;;;;6.10;3.58;;;;;;;3.65;48.77;94755.16;5077681;28;20536;-64
2022/01/31 07:29:25;;;;;;;8.00;3.45;;;;;;;4.13;50.11;94743.38;5077552;28;20209;-64
2022/01/31 07:31:54;;;;;;;6.68;3.30;;;;;;;4.22;48.29;94729.75;5076263;28;20215;-65
2022/01/31 07:34:21;;;;;;;8.27;4.03;;;;;;;4.23;49.22;94729.41;5077186;28;20625;-65
2022/01/31 07:36:48;;;;;;;9.05;4.15;;;;;;;4.04;47.77;94715.28;5076029;28;20236;-66
2022/01/31 07:39:15;;;;;;;8.52;4.25;;;;;;;3.87;49.00;94716.06;5077246;28;20192;-64
2022/01/31 07:41:42;;;;;;;7.60;4.40;;;;;;;3.76;48.47;94712.03;5076736;28;20582;-64
2022/01/31 07:44:09;;;;;;;5.80;3.30;;;;;;;3.69;49.30;94711.69;5077190;28;20181;-65
2022/01/31 07:46:36;;;;;;;6.20;3.00;;;;;;;3.65;47.31;94705.28;5076596;28;20201;-64
2022/01/31 07:49:04;;;;;;;7.00;3.58;;;;;;;3.69;47.97;94704.31;5076243;28;20215;-64
2022/01/31 07:51:31;;;;;;;10.68;4.20;;;;;;;3.73;49.77;94696.31;5076469;28;20201;-63
2022/01/31 07:53:58;;;;;;;8.77;4.72;;;;;;;3.78;49.75;94709.81;5076801;28;20624;-63
2022/01/31 07:56:25;;;;;;;8.00;4.20;;;;;;;3.83;49.57;94704.19;5077706;28;20205;-64
2022/01/31 07:58:51;;;;;;;7.80;3.83;;;;;;;3.91;51.17;94699.84;5075971;28;20201;-63
2022/01/31 08:01:18;;;;;;;8.48;3.50;;;;;;;3.92;47.81;94717.81;5076185;28;20201;-63
2022/01/31 08:03:47;;;;;;;4.65;3.00;;;;;;;3.83;49.40;94712.38;5075718;28;20213;-65
2022/01/31 08:06:16;;;;;;;8.52;3.60;;;;;;;3.77;48.51;94705.44;5076731;28;20199;-64
2022/01/31 08:08:43;;;;;;;5.85;3.25;;;;;;;3.79;50.34;94714.13;5076455;28;20220;-64
2022/01/31 08:11:10;;;;;;;5.20;3.25;;;;;;;3.83;49.64;94706.91;5076884;28;20288;-64
2022/01/31 08:13:38;;;;;;;5.75;3.22;;;;;;;3.84;47.11;94711.25;5076807;28;20200;-64
2022/01/31 08:16:10;;;;;;;7.80;3.78;;;;;;;3.86;48.91;94711.75;5076726;28;20197;-64
2022/01/31 08:18:39;;;;;;;7.88;3.72;;;;;;;3.99;48.85;94693.59;5075923;28;20208;-64
2022/01/31 08:21:06;;;;;;;6.15;3.67;;;;;;;4.05;48.73;94692.31;5076089;28;20258;-64
2022/01/31 08:23:35;;;;;;;4.00;3.22;;;;;;;4.07;46.33;94692.81;5076708;28;20196;-64
2022/01/31 08:26:02;;;;;;;6.60;3.20;;;;;;;4.13;46.51;94688.00;5076150;28;20176;-64
2022/01/31 08:28:39;;;;;;;6.28;3.70;;;;;;;4.23;48.87;94682.22;5075923;28;20446;-64
2022/01/31 08:31:13;;;;;;;5.00;3.28;;;;;;;4.28;45.69;94682.84;5076487;28;20196;-64
2022/01/31 08:33:44;;;;;;;5.05;2.97;;;;;;;4.33;46.44;94688.16;5076481;28;20189;-64
2022/01/31 08:36:11;;;;;;;4.28;2.55;;;;;;;4.39;47.49;94699.69;5076166;28;20264;-64
2022/01/31 08:38:42;;;;;;;5.18;2.83;;;;;;;4.49;45.68;94691.16;5076176;28;20196;-64
2022/01/31 08:41:10;;;;;;;4.30;2.67;;;;;;;4.56;46.09;94705.13;5076301;28;20182;-64
2022/01/31 08:43:37;;;;;;;5.78;2.95;;;;;;;4.61;44.97;94704.16;5075187;28;20212;-64
2022/01/31 08:46:04;;;;;;;6.47;3.38;;;;;;;4.70;45.30;94690.50;5075944;28;20212;-64
2022/01/31 08:48:31;;;;;;;4.95;2.92;;;;;;;4.85;45.67;94698.19;5076221;28;20203;-64
2022/01/31 08:50:59;;;;;;;7.63;2.97;;;;;;;4.97;46.68;94692.81;5075649;28;20195;-64
2022/01/31 08:53:26;;;;;;;6.13;3.88;;;;;;;5.10;46.71;94693.75;5075934;28;20185;-64
2022/01/31 08:55:55;;;;;;;7.05;3.70;;;;;;;5.18;44.83;94692.13;5075836;28;20181;-64
2022/01/31 08:58:22;;;;;;;7.70;4.55;;;;;;;5.21;46.25;94700.47;5075157;28;20197;-64
2022/01/31 09:00:57;;;;;;;7.28;4.18;;;;;;;5.35;44.90;94688.53;5075144;28;20193;-64
2022/01/31 09:03:43;;;;;;;7.07;4.22;;;;;;;5.43;43.60;94682.19;5075754;28;20185;-64
2022/01/31 09:06:11;;;;;;;7.63;4.40;;;;;;;5.48;44.02;94680.09;5075490;28;20185;-64
2022/01/31 09:08:39;;;;;;;6.05;3.00;;;;;;;5.60;42.43;94678.59;5075201;28;20192;-64
2022/01/31 09:11:07;;;;;;;5.28;3.72;;;;;;;5.66;44.04;94669.03;5075732;28;20193;-64
2022/01/31 09:13:35;;;;;;;7.30;3.60;;;;;;;5.82;45.01;94670.06;5075769;28;20200;-64
2022/01/31 09:16:01;;;;;;;5.18;3.50;;;;;;;5.90;45.69;94658.25;5074572;28;20310;-64
2022/01/31 09:18:28;;;;;;;6.53;4.05;;;;;;;6.08;44.44;94653.47;5074912;28;20201;-64
2022/01/31 09:20:57;;;;;;;6.35;4.63;;;;;;;6.22;44.31;94647.75;5074917;28;20212;-64
2022/01/31 09:23:24;;;;;;;8.52;4.28;;;;;;;6.35;43.89;94649.38;5075781;28;20186;-64
2022/01/31 09:25:51;;;;;;;8.23;4.38;;;;;;;6.46;40.74;94645.09;5074427;28;20196;-64
2022/01/31 09:28:19;;;;;;;8.35;4.70;;;;;;;6.42;41.89;94632.41;5074707;28;20215;-64
2022/01/31 09:30:47;;;;;;;9.23;4.35;;;;;;;6.44;42.30;94632.88;5074901;28;20221;-64
2022/01/31 09:33:15;;;;;;;6.35;3.55;;;;;;;6.41;42.36;94628.84;5075064;28;20191;-64
2022/01/31 09:35:42;;;;;;;5.68;3.55;;;;;;;6.30;39.92;94635.09;5073940;28;20691;-64
2022/01/31 09:38:12;;;;;;;4.80;2.83;;;;;;;6.35;40.93;94621.19;5075183;28;20191;-64
2022/01/31 09:40:38;;;;;;;5.93;3.10;;;;;;;6.38;41.40;94624.06;5074084;28;20624;-66
2022/01/31 09:43:25;;;;;;;8.38;3.67;;;;;;;6.54;40.76;94634.41;5075456;28;20205;-64
2022/01/31 09:46:02;;;;;;;7.95;3.33;;;;;;;6.50;39.70;94602.19;5072943;28;20428;-64
2022/01/31 09:48:35;;;;;;;7.78;3.72;;;;;;;6.55;40.19;94598.44;5074994;28;20566;-64
2022/01/31 09:51:05;;;;;;;5.25;3.17;;;;;;;6.63;40.01;94594.78;5075269;28;20252;-64
2022/01/31 09:53:33;;;;;;;6.28;3.03;;;;;;;6.79;41.68;94586.72;5075221;28;20535;-63
2022/01/31 09:56:00;;;;;;;4.63;2.83;;;;;;;6.92;39.56;94582.84;5075125;28;20185;-65
2022/01/31 09:58:29;;;;;;;4.97;3.30;;;;;;;6.94;40.16;94580.56;5074484;28;20205;-65
2022/01/31 10:01:06;;;;;;;4.22;2.40;;;;;;;6.88;39.23;94584.66;5075231;28;20516;-65
2022/01/31 10:03:33;;;;;;;3.95;2.40;;;;;;;6.98;40.43;94575.22;5075238;28;20191;-65
2022/01/31 10:06:00;;;;;;;4.20;2.60;;;;;;;7.03;39.46;94566.75;5074009;28;20197;-65
2022/01/31 10:08:30;;;;;;;5.95;2.80;;;;;;;6.90;39.57;94551.41;5074229;28;20201;-66
2022/01/31 10:11:00;;;;;;;5.90;3.05;;;;;;;6.84;39.97;94547.31;5075077;28;20216;-65
2022/01/31 10:16:28;;;;;;;5.13;3.33;;;;;;;6.64;39.02;94541.56;5074964;28;20193;-64
2022/01/31 10:19:07;;;;;;;3.90;2.65;;;;;;;6.51;39.26;94510.63;5074321;28;20210;-63
2022/01/31 10:21:35;;;;;;;5.32;2.95;;;;;;;6.58;38.43;94514.75;5074135;28;20469;-64
2022/01/31 10:24:16;;;;;;;4.20;3.00;;;;;;;6.71;41.41;94508.94;5073623;28;20205;-64
2022/01/31 10:26:43;;;;;;;5.00;3.08;;;;;;;6.93;39.58;94506.88;5075049;28;20635;-64
2022/01/31 10:29:11;;;;;;;6.82;3.53;;;;;;;7.15;39.92;94497.38;5075334;28;20201;-64
2022/01/31 10:31:53;;;;;;;4.95;3.00;;;;;;;7.38;38.66;94498.50;5073898;28;20204;-64
2022/01/31 10:34:23;;;;;;;4.68;2.92;;;;;;;7.43;38.33;94490.00;5074283;28;20201;-64
2022/01/31 10:36:50;;;;;;;6.25;3.10;;;;;;;7.48;37.93;94476.06;5073616;28;20327;-64
2022/01/31 10:45:09;;;;;;;5.30;3.15;;;;;;;7.93;37.55;94454.94;5074228;28;20238;-65
2022/01/31 10:53:18;;;;;;;4.68;3.00;;;;;;;8.07;36.71;94427.06;5013101;28;20195;-65
2022/01/31 10:55:53;;;;;;;4.25;2.40;;;;;;;8.14;36.64;94416.28;5059825;28;20534;-64
2022/01/31 10:58:20;;;;;;;3.25;2.95;;;;;;;8.25;36.23;94433.81;5078063;28;20598;-64
2022/01/31 11:00:47;;;;;;;4.55;2.78;;;;;;;8.31;35.63;94426.91;5077873;28;20181;-65
2022/01/31 11:03:32;;;;;;;5.38;2.72;;;;;;;8.27;36.00;94409.53;5077244;28;20205;-63
2022/01/31 11:06:01;;;;;;;4.70;2.70;;;;;;;8.43;35.81;94410.38;5077683;28;20617;-64
2022/01/31 11:08:29;;;;;;;5.38;3.20;;;;;;;8.48;35.38;94401.06;5078254;28;20181;-64
2022/01/31 11:10:58;;;;;;;3.97;2.20;;;;;;;8.62;35.51;94393.16;5077584;28;20304;-65
2022/01/31 11:13:26;;;;;;;5.05;2.38;;;;;;;8.80;34.45;94396.31;5077866;28;20185;-63
2022/01/31 11:15:53;;;;;;;5.15;2.70;;;;;;;9.00;35.46;94399.91;5077458;28;20189;-64
2022/01/31 11:18:21;;;;;;;3.13;2.53;;;;;;;9.22;34.63;94397.63;5077358;28;20204;-65
2022/01/31 11:20:52;;;;;;;3.97;2.60;;;;;;;9.34;33.44;94392.00;5077815;28;20207;-64
2022/01/31 11:23:20;;;;;;;4.03;2.50;;;;;;;9.37;32.47;94388.53;5077785;28;20574;-64
2022/01/31 11:25:48;;;;;;;3.72;2.50;;;;;;;9.35;32.75;94390.81;5076593;28;20193;-64
2022/01/31 11:28:16;;;;;;;4.15;2.85;;;;;;;9.44;33.43;94385.91;5077139;28;20594;-64
2022/01/31 11:30:43;;;;;;;5.70;2.75;;;;;;;9.64;34.36;94373.72;5076614;28;20227;-64
2022/01/31 11:33:11;;;;;;;4.90;2.65;;;;;;;9.90;33.74;94377.75;5076591;28;20199;-64
2022/01/31 11:35:38;;;;;;;4.43;2.58;;;;;;;10.02;33.44;94358.31;5077403;28;20294;-65
2022/01/31 11:38:06;;;;;;;3.58;2.80;;;;;;;10.09;34.13;94361.19;5077107;28;20181;-68
2022/01/31 11:40:33;;;;;;;3.35;2.28;;;;;;;9.88;32.43;94353.34;5076521;28;20201;-64
2022/01/31 11:43:03;;;;;;;5.72;3.20;;;;;;;9.77;32.38;94343.28;5076619;28;20197;-64
2022/01/31 11:45:31;;;;;;;4.78;2.85;;;;;;;9.69;33.56;94344.28;5076505;28;20197;-65
2022/01/31 11:48:04;;;;;;;3.25;2.30;;;;;;;9.82;34.12;94337.47;5076819;28;20177;-65
2022/01/31 11:50:32;;;;;;;3.97;2.80;;;;;;;9.91;33.50;94340.75;5077295;28;20209;-64
2022/01/31 11:53:00;;;;;;;5.20;2.70;;;;;;;9.71;33.73;94322.72;5077128;28;20203;-64
2022/01/31 11:55:32;;;;;;;3.72;2.40;;;;;;;9.72;33.80;94310.53;5076841;28;20640;-64
2022/01/31 11:58:00;;;;;;;5.35;2.80;;;;;;;9.78;33.92;94307.09;5076060;28;20193;-64
2022/01/31 12:00:31;;;;;;;3.80;2.25;;;;;;;9.83;32.53;94317.81;5076630;28;20239;-64